createdAt,value
2022-09-10T00:01:00.077Z,1.43
2022-09-10T00:03:27.608Z,1.50
2022-09-10T00:05:55.519Z,2.03
2022-09-10T00:08:22.791Z,1.70
2022-09-10T00:10:51.534Z,1.63
2022-09-10T00:13:23.072Z,1.80
2022-09-10T00:15:53.699Z,1.87
2022-09-10T00:18:22.208Z,1.83
2022-09-10T00:20:51.877Z,1.90
2022-09-10T00:23:20.347Z,1.67
2022-09-10T00:25:48.561Z,1.70
2022-09-10T00:28:15.719Z,1.70
2022-09-10T00:30:44.267Z,1.80
2022-09-10T00:33:11.627Z,1.90
2022-09-10T00:35:39.598Z,1.80
2022-09-10T00:38:07.357Z,2.20
2022-09-10T00:40:34.498Z,2.07
2022-09-10T00:43:01.606Z,1.93
2022-09-10T00:45:29.681Z,2.30
2022-09-10T00:47:59.176Z,2.07
2022-09-10T00:50:29.477Z,2.33
2022-09-10T00:53:00.195Z,1.87
2022-09-10T00:55:28.366Z,2.37
2022-09-10T00:57:59.575Z,1.90
2022-09-10T01:00:26.559Z,2.43
2022-09-10T01:02:55.732Z,2.57
2022-09-10T01:05:22.737Z,2.13
2022-09-10T01:07:49.484Z,2.10
2022-09-10T01:10:21.344Z,2.27
2022-09-10T01:13:12.937Z,2.13
2022-09-10T01:15:48.553Z,2.50
2022-09-10T01:18:29.460Z,2.20
2022-09-10T01:21:08.778Z,2.40
2022-09-10T01:24:08.449Z,2.47
2022-09-10T01:27:01.548Z,2.20
2022-09-10T01:29:35.389Z,2.27
2022-09-10T01:32:09.117Z,2.10
2022-09-10T01:34:41.324Z,2.20
2022-09-10T01:37:16.667Z,2.70
2022-09-10T01:39:45.074Z,2.67
2022-09-10T01:42:17.934Z,2.50
2022-09-10T01:44:46.830Z,2.50
2022-09-10T01:47:22.911Z,2.30
2022-09-10T01:50:03.588Z,2.50
2022-09-10T01:52:39.084Z,2.73
2022-09-10T01:55:16.525Z,2.00
2022-09-10T01:57:52.200Z,2.40
2022-09-10T02:00:21.703Z,2.70
2022-09-10T02:02:53.678Z,2.53
2022-09-10T02:05:23.106Z,2.60
2022-09-10T02:07:53.217Z,2.70
2022-09-10T02:10:20.121Z,2.37
2022-09-10T02:12:47.058Z,2.70
2022-09-10T02:15:14.208Z,2.50
2022-09-10T02:17:42.237Z,2.33
2022-09-10T02:20:13.690Z,2.63
2022-09-10T02:22:47.592Z,2.50
2022-09-10T02:25:14.716Z,2.40
2022-09-10T02:27:43.212Z,2.80
2022-09-10T02:30:11.047Z,2.70
2022-09-10T02:32:38.007Z,2.83
2022-09-10T02:35:06.499Z,2.60
2022-09-10T02:37:33.546Z,3.27
2022-09-10T02:40:00.521Z,2.93
2022-09-10T02:42:27.524Z,3.13
2022-09-10T02:44:54.677Z,2.93
2022-09-10T02:47:21.586Z,3.10
2022-09-10T02:49:48.517Z,3.10
2022-09-10T02:52:16.989Z,2.77
2022-09-10T02:54:44.353Z,3.50
2022-09-10T02:57:11.663Z,3.07
2022-09-10T02:59:38.619Z,3.07
2022-09-10T03:02:05.508Z,2.80
2022-09-10T03:04:32.436Z,2.97
2022-09-10T03:07:02.381Z,3.13
2022-09-10T03:09:29.773Z,3.67
2022-09-10T03:12:04.538Z,3.60
2022-09-10T03:14:35.989Z,3.57
2022-09-10T03:17:05.453Z,3.50
2022-09-10T03:19:36.603Z,3.67
2022-09-10T03:22:12.480Z,3.53
2022-09-10T03:24:40.319Z,3.70
2022-09-10T03:27:07.868Z,3.50
2022-09-10T03:29:37.350Z,3.27
2022-09-10T03:32:04.522Z,3.50
2022-09-10T03:34:31.473Z,3.73
2022-09-10T03:36:58.385Z,3.60
2022-09-10T03:39:25.296Z,3.63
2022-09-10T03:41:52.789Z,4.60
2022-09-10T03:44:19.679Z,23.33
2022-09-10T03:46:47.964Z,4.37
2022-09-10T03:49:15.531Z,3.67
2022-09-10T03:51:42.740Z,3.53
2022-09-10T03:54:09.668Z,3.57
2022-09-10T03:56:36.562Z,3.43
2022-09-10T03:59:06.721Z,3.57
2022-09-10T04:01:33.692Z,3.47
2022-09-10T04:04:02.152Z,3.67
2022-09-10T04:06:31.570Z,3.77
2022-09-10T04:09:00.585Z,3.30
2022-09-10T04:11:27.939Z,3.30
2022-09-10T04:13:57.520Z,3.40
2022-09-10T04:16:27.067Z,3.53
2022-09-10T04:18:54.736Z,3.77
2022-09-10T04:21:26.012Z,4.40
2022-09-10T04:23:54.901Z,4.00
2022-09-10T04:26:21.890Z,3.90
2022-09-10T04:28:49.321Z,3.70
2022-09-10T04:31:16.489Z,4.10
2022-09-10T04:33:44.211Z,4.60
2022-09-10T04:36:12.138Z,4.00
2022-09-10T04:38:40.992Z,3.70
2022-09-10T04:41:08.305Z,3.43
2022-09-10T04:43:35.213Z,3.80
2022-09-10T04:46:02.360Z,3.97
2022-09-10T04:48:29.289Z,3.70
2022-09-10T04:51:15.406Z,3.80
2022-09-10T04:53:43.308Z,3.97
2022-09-10T04:56:10.305Z,4.10
2022-09-10T04:58:39.581Z,3.70
2022-09-10T05:01:06.493Z,4.10
2022-09-10T05:03:33.993Z,3.87
2022-09-10T05:06:01.505Z,3.73
2022-09-10T05:08:28.875Z,3.93
2022-09-10T05:10:58.081Z,4.53
2022-09-10T05:13:24.995Z,3.60
2022-09-10T05:15:52.605Z,4.10
2022-09-10T05:18:20.067Z,3.93
2022-09-10T05:20:47.181Z,3.80
2022-09-10T05:23:14.895Z,4.10
2022-09-10T05:25:43.666Z,4.03
2022-09-10T05:28:10.713Z,3.83
2022-09-10T05:30:37.994Z,3.60
2022-09-10T05:33:05.977Z,3.30
2022-09-10T05:35:32.965Z,3.37
2022-09-10T05:38:00.285Z,3.00
2022-09-10T05:40:31.704Z,2.60
2022-09-10T05:42:59.469Z,3.20
2022-09-10T05:45:26.755Z,2.80
2022-09-10T05:47:53.998Z,2.90
2022-09-10T05:50:21.041Z,2.40
2022-09-10T05:52:47.972Z,2.43
2022-09-10T05:55:14.870Z,3.10
2022-09-10T05:57:42.255Z,2.10
2022-09-10T06:00:09.849Z,2.50
2022-09-10T06:02:37.067Z,2.30
2022-09-10T06:05:06.591Z,2.27
2022-09-10T06:07:33.690Z,2.53
2022-09-10T06:10:00.756Z,1.90
2022-09-10T06:12:27.973Z,2.30
2022-09-10T06:14:57.758Z,2.20
2022-09-10T06:17:24.701Z,2.00
2022-09-10T06:19:52.645Z,2.20
2022-09-10T06:22:19.885Z,2.43
2022-09-10T06:24:49.621Z,2.00
2022-09-10T06:27:16.695Z,2.00
2022-09-10T06:29:43.629Z,1.80
2022-09-10T06:32:11.238Z,1.90
2022-09-10T06:34:38.292Z,2.00
2022-09-10T06:37:32.012Z,2.00
2022-09-10T06:39:59.047Z,1.87
2022-09-10T06:42:28.006Z,1.80
2022-09-10T06:44:54.891Z,1.27
2022-09-10T06:50:09.554Z,1.83
2022-09-10T06:52:36.984Z,1.30
2022-09-10T06:55:05.990Z,1.40
2022-09-10T06:57:33.141Z,1.47
2022-09-10T07:00:00.357Z,1.50
2022-09-10T07:02:27.757Z,1.40
2022-09-10T07:04:54.785Z,1.77
2022-09-10T07:07:21.765Z,1.20
2022-09-10T07:09:48.654Z,1.63
2022-09-10T07:12:15.648Z,1.60
2022-09-10T07:14:42.631Z,1.40
2022-09-10T07:17:09.535Z,1.30
2022-09-10T07:19:40.491Z,1.13
2022-09-10T07:22:07.388Z,1.70
2022-09-10T07:24:34.507Z,1.27
2022-09-10T07:27:01.413Z,1.07
2022-09-10T07:29:30.473Z,1.50
2022-09-10T07:31:57.725Z,1.37
2022-09-10T07:34:27.818Z,1.70
2022-09-10T07:36:56.027Z,1.50
2022-09-10T07:39:25.721Z,1.50
2022-09-10T07:41:54.416Z,2.00
2022-09-10T07:44:22.572Z,1.07
2022-09-10T07:46:52.949Z,2.57
2022-09-10T07:49:20.472Z,1.80
2022-09-10T07:51:47.456Z,4.03
2022-09-10T07:54:16.577Z,3.37
2022-09-10T07:56:43.507Z,1.87
2022-09-10T07:59:10.814Z,1.27
2022-09-10T08:01:37.954Z,1.67
2022-09-10T08:04:05.623Z,1.63
2022-09-10T08:06:33.285Z,1.83
2022-09-10T08:09:00.362Z,2.20
2022-09-10T08:11:30.280Z,1.30
2022-09-10T08:13:57.406Z,1.57
2022-09-10T08:16:26.093Z,1.60
2022-09-10T08:18:57.153Z,2.03
2022-09-10T08:21:29.214Z,1.57
2022-09-10T08:23:56.710Z,1.60
2022-09-10T08:26:25.475Z,3.57
2022-09-10T08:28:55.113Z,3.30
2022-09-10T08:31:23.990Z,3.77
2022-09-10T08:33:52.519Z,1.20
2022-09-10T08:36:21.316Z,1.17
2022-09-10T08:38:49.687Z,0.97
2022-09-10T08:41:27.569Z,0.90
2022-09-10T08:43:59.823Z,1.10
2022-09-10T08:46:29.449Z,0.70
2022-09-10T08:49:10.551Z,0.90
2022-09-10T08:51:47.600Z,0.85
2022-09-10T08:54:19.309Z,0.65
2022-09-10T08:56:47.532Z,0.80
2022-09-10T08:59:22.798Z,0.90
2022-09-10T09:01:55.644Z,0.60
2022-09-10T09:04:33.923Z,0.70
2022-09-10T09:07:12.134Z,0.95
2022-09-10T09:09:39.825Z,0.57
2022-09-10T09:12:15.487Z,0.80
2022-09-10T09:14:53.863Z,0.80
2022-09-10T09:17:37.916Z,1.17
2022-09-10T09:20:14.569Z,0.68
2022-09-10T09:22:50.533Z,0.50
2022-09-10T09:25:23.291Z,0.75
2022-09-10T09:27:54.060Z,0.90
2022-09-10T09:30:25.438Z,0.35
2022-09-10T09:33:10.112Z,0.70
2022-09-10T09:35:46.363Z,1.48
2022-09-10T09:38:21.510Z,1.00
2022-09-10T09:40:50.452Z,1.65
2022-09-10T09:43:32.984Z,1.30
2022-09-10T09:46:01.416Z,0.90
2022-09-10T09:48:35.560Z,1.23
2022-09-10T09:51:03.779Z,0.60
2022-09-10T09:53:30.939Z,1.30
2022-09-10T09:55:59.630Z,0.90
2022-09-10T09:58:29.545Z,0.63
2022-09-10T10:01:13.180Z,0.70
2022-09-10T10:03:51.544Z,1.25
2022-09-10T10:06:21.546Z,0.45
2022-09-10T10:08:58.867Z,1.23
2022-09-10T10:11:46.064Z,1.13
2022-09-10T10:14:26.130Z,1.42
2022-09-10T10:16:59.950Z,1.33
2022-09-10T10:19:34.062Z,0.82
2022-09-10T10:22:21.601Z,1.20
2022-09-10T10:24:50.742Z,0.70
2022-09-10T10:27:20.716Z,0.80
2022-09-10T10:29:56.300Z,0.63
2022-09-10T10:32:34.189Z,0.57
2022-09-10T10:35:34.666Z,0.63
2022-09-10T10:38:27.694Z,0.65
2022-09-10T10:41:12.956Z,0.68
2022-09-10T10:43:54.976Z,0.63
2022-09-10T10:46:27.225Z,0.65
2022-09-10T10:49:16.039Z,0.57
2022-09-10T10:51:52.078Z,0.50
2022-09-10T10:54:36.753Z,0.60
2022-09-10T10:57:15.425Z,0.60
2022-09-10T10:59:54.173Z,0.60
2022-09-10T11:02:30.262Z,0.63
2022-09-10T11:05:00.505Z,0.80
2022-09-10T11:07:34.093Z,0.53
2022-09-10T11:10:11.134Z,0.90
2022-09-10T11:12:44.463Z,0.50
2022-09-10T11:15:23.338Z,0.80
2022-09-10T11:17:57.705Z,0.50
2022-09-10T11:20:29.935Z,0.77
2022-09-10T11:23:03.042Z,0.60
2022-09-10T11:25:33.954Z,0.40
2022-09-10T11:28:10.489Z,0.50
2022-09-10T11:30:40.318Z,0.50
2022-09-10T11:33:16.698Z,0.60
2022-09-10T11:35:50.815Z,0.70
2022-09-10T11:38:24.114Z,0.80
2022-09-10T11:41:03.199Z,0.43
2022-09-10T11:43:39.112Z,0.60
2022-09-10T11:46:11.661Z,0.80
2022-09-10T11:48:45.041Z,0.60
2022-09-10T11:51:18.013Z,0.38
2022-09-10T11:53:45.163Z,0.52
2022-09-10T11:56:46.360Z,0.80
2022-09-10T11:59:34.462Z,0.60
2022-09-10T12:02:28.548Z,0.60
2022-09-10T12:05:03.605Z,0.63
2022-09-10T12:07:43.679Z,0.60
2022-09-10T12:10:19.527Z,0.60
2022-09-10T12:12:49.091Z,0.52
2022-09-10T12:15:19.464Z,0.60
2022-09-10T12:17:50.599Z,0.50
2022-09-10T12:20:21.243Z,0.32
2022-09-10T12:22:52.864Z,0.73
2022-09-10T12:25:31.661Z,0.60
2022-09-10T12:28:02.115Z,0.40
2022-09-10T12:31:00.466Z,0.55
2022-09-10T12:34:16.181Z,0.70
2022-09-10T12:37:23.302Z,0.70
2022-09-10T12:40:29.313Z,0.60
2022-09-10T12:42:58.582Z,0.87
2022-09-10T12:45:58.759Z,0.70
2022-09-10T12:48:27.159Z,0.47
2022-09-10T12:50:57.397Z,0.60
2022-09-10T12:53:59.556Z,0.70
2022-09-10T12:56:52.026Z,0.57
2022-09-10T12:59:33.301Z,0.87
2022-09-10T13:02:00.474Z,1.10
2022-09-10T13:04:29.478Z,0.90
2022-09-10T13:06:59.342Z,0.70
2022-09-10T13:09:29.239Z,0.60
2022-09-10T13:12:03.420Z,1.33
2022-09-10T13:14:35.348Z,0.30
2022-09-10T13:17:02.734Z,0.80
2022-09-10T13:20:00.343Z,0.60
2022-09-10T13:22:53.848Z,0.70
2022-09-10T13:25:38.374Z,0.70
2022-09-10T13:28:40.069Z,0.90
2022-09-10T13:31:16.428Z,0.70
2022-09-10T13:34:06.175Z,0.70
2022-09-10T13:36:41.224Z,0.90
2022-09-10T13:39:26.069Z,0.83
2022-09-10T13:42:14.297Z,0.70
2022-09-10T13:45:04.357Z,0.87
2022-09-10T13:47:39.533Z,1.10
2022-09-10T13:50:13.880Z,1.13
2022-09-10T13:52:44.860Z,0.97
2022-09-10T13:55:19.117Z,0.80
2022-09-10T13:57:48.512Z,0.67
2022-09-10T14:00:22.994Z,0.80
2022-09-10T14:02:57.890Z,0.67
2022-09-10T14:05:25.926Z,30.47
2022-09-10T14:07:56.341Z,3.10
2022-09-10T14:10:23.810Z,1.30
2022-09-10T14:12:54.341Z,0.93
2022-09-10T14:15:29.338Z,0.97
2022-09-10T14:17:59.014Z,0.90
2022-09-10T14:20:28.128Z,0.90
2022-09-10T14:22:59.463Z,1.70
2022-09-10T14:25:30.519Z,0.93
2022-09-10T14:28:19.027Z,0.97
2022-09-10T14:30:48.227Z,1.20
2022-09-10T14:33:33.343Z,1.10
2022-09-10T14:36:13.675Z,1.00
2022-09-10T14:38:41.760Z,1.50
2022-09-10T14:41:19.000Z,1.20
2022-09-10T14:43:45.935Z,1.10
2022-09-10T14:46:29.446Z,1.20
2022-09-10T14:49:10.595Z,1.27
2022-09-10T14:51:37.771Z,1.23
2022-09-10T14:54:04.710Z,1.67
2022-09-10T14:56:35.562Z,1.17
2022-09-10T14:59:05.651Z,1.07
2022-09-10T15:01:34.649Z,0.70
2022-09-10T15:04:02.744Z,1.40
2022-09-10T15:06:30.933Z,1.00
2022-09-10T15:08:59.966Z,0.80
2022-09-10T15:11:27.905Z,1.00
2022-09-10T15:13:55.768Z,1.10
2022-09-10T15:16:22.862Z,0.73
2022-09-10T15:18:49.927Z,0.80
2022-09-10T15:21:17.540Z,0.87
2022-09-10T15:23:47.488Z,0.93
2022-09-10T15:26:14.763Z,0.70
2022-09-10T15:28:42.039Z,1.00
2022-09-10T15:31:09.737Z,1.10
2022-09-10T15:33:37.053Z,1.00
2022-09-10T15:36:04.725Z,0.80
2022-09-10T15:38:31.635Z,0.73
2022-09-10T15:41:08.738Z,0.90
2022-09-10T15:43:42.129Z,0.90
2022-09-10T15:46:09.167Z,0.73
2022-09-10T15:48:36.550Z,0.90
2022-09-10T15:51:05.957Z,1.10
2022-09-10T15:53:33.131Z,1.00
2022-09-10T15:56:01.986Z,1.00
2022-09-10T15:58:30.559Z,1.00
2022-09-10T16:01:02.877Z,0.73
2022-09-10T16:03:30.194Z,1.00
2022-09-10T16:06:00.833Z,1.17
2022-09-10T16:08:27.976Z,0.87
2022-09-10T16:10:54.921Z,1.10
2022-09-10T16:13:21.864Z,1.10
2022-09-10T16:15:59.150Z,1.20
2022-09-10T16:18:26.632Z,1.27
2022-09-10T16:20:53.782Z,1.20
2022-09-10T16:23:20.704Z,2.97
2022-09-10T16:25:51.572Z,1.57
2022-09-10T16:28:18.676Z,1.37
2022-09-10T16:30:45.929Z,1.07
2022-09-10T16:33:13.711Z,1.33
2022-09-10T16:35:41.041Z,1.23
2022-09-10T16:38:07.960Z,1.20
2022-09-10T16:40:35.001Z,1.70
2022-09-10T16:43:02.323Z,1.20
2022-09-10T16:45:29.795Z,1.60
2022-09-10T16:48:02.095Z,1.23
2022-09-10T16:50:31.388Z,1.53
2022-09-10T16:52:58.387Z,1.60
2022-09-10T16:55:25.361Z,1.60
2022-09-10T16:57:52.297Z,1.73
2022-09-10T17:00:21.445Z,1.50
2022-09-10T17:02:50.347Z,1.40
2022-09-10T17:05:17.349Z,1.50
2022-09-10T17:07:44.741Z,1.67
2022-09-10T17:10:11.919Z,2.23
2022-09-10T17:12:39.273Z,1.30
2022-09-10T17:15:06.694Z,1.40
2022-09-10T17:17:33.713Z,1.30
2022-09-10T17:20:00.760Z,6.37
2022-09-10T17:22:27.745Z,2.00
2022-09-10T17:24:55.371Z,2.20
2022-09-10T17:27:25.538Z,2.10
2022-09-10T17:29:52.641Z,1.70
2022-09-10T17:32:19.607Z,2.10
2022-09-10T17:34:46.736Z,1.90
2022-09-10T17:37:14.140Z,1.87
2022-09-10T17:39:45.656Z,2.30
2022-09-10T17:42:28.400Z,2.20
2022-09-10T17:44:58.903Z,2.30
2022-09-10T17:47:26.245Z,2.67
2022-09-10T17:49:53.642Z,3.30
2022-09-10T17:52:20.574Z,2.97
2022-09-10T17:54:47.635Z,3.00
2022-09-10T17:57:17.152Z,3.07
2022-09-10T17:59:44.126Z,2.37
2022-09-10T18:02:17.932Z,2.37
2022-09-10T18:04:45.373Z,2.27
2022-09-10T18:07:20.039Z,1.50
2022-09-10T18:09:57.677Z,1.60
2022-09-10T18:12:26.991Z,1.23
2022-09-10T18:14:53.953Z,1.20
2022-09-10T18:17:21.026Z,1.33
2022-09-10T18:19:48.041Z,1.03
2022-09-10T18:22:15.275Z,1.30
2022-09-10T18:24:42.327Z,1.53
2022-09-10T18:27:09.268Z,1.23
2022-09-10T18:29:38.180Z,1.20
2022-09-10T18:32:09.572Z,1.60
2022-09-10T18:34:37.229Z,1.97
2022-09-10T18:37:06.891Z,1.77
2022-09-10T18:39:33.918Z,1.47
2022-09-10T18:42:01.027Z,1.70
2022-09-10T18:44:29.429Z,1.60
2022-09-10T18:46:59.227Z,1.70
2022-09-10T18:49:26.472Z,1.83
2022-09-10T18:51:54.769Z,1.70
2022-09-10T18:54:22.869Z,2.00
2022-09-10T18:56:53.135Z,2.10
2022-09-10T18:59:22.497Z,1.77
2022-09-10T19:01:50.796Z,2.07
2022-09-10T19:04:21.810Z,2.10
2022-09-10T19:06:54.901Z,2.73
2022-09-10T19:09:23.353Z,2.00
2022-09-10T19:11:53.202Z,3.70
2022-09-10T19:14:22.054Z,3.17
2022-09-10T19:16:50.422Z,4.00
2022-09-10T19:19:19.955Z,3.23
2022-09-10T19:21:47.829Z,3.00
2022-09-10T19:24:16.832Z,3.17
2022-09-10T19:26:44.081Z,3.10
2022-09-10T19:29:12.453Z,14.63
2022-09-10T19:31:41.276Z,3.97
2022-09-10T19:34:12.339Z,3.00
2022-09-10T19:36:39.949Z,3.07
2022-09-10T19:39:09.367Z,3.00
2022-09-10T19:41:40.617Z,3.87
2022-09-10T19:44:11.608Z,3.07
2022-09-10T19:46:40.234Z,3.90
2022-09-10T19:49:07.406Z,4.07
2022-09-10T19:51:36.229Z,3.97
2022-09-10T19:54:05.853Z,4.20
2022-09-10T19:56:35.006Z,4.30
2022-09-10T19:59:07.850Z,4.57
2022-09-10T20:01:36.523Z,3.77
2022-09-10T20:04:06.165Z,3.90
2022-09-10T20:06:34.088Z,3.70
2022-09-10T20:09:01.137Z,4.10
2022-09-10T20:11:31.740Z,3.67
2022-09-10T20:14:02.153Z,3.70
2022-09-10T20:16:29.286Z,4.40
2022-09-10T20:18:56.312Z,3.90
2022-09-10T20:21:24.921Z,4.13
2022-09-10T20:23:54.842Z,4.53
2022-09-10T20:26:23.493Z,3.97
2022-09-10T20:28:53.193Z,4.40
2022-09-10T20:31:21.321Z,5.23
2022-09-10T20:33:48.908Z,5.00
2022-09-10T20:36:16.909Z,4.80
2022-09-10T20:38:44.252Z,4.43
2022-09-10T20:41:11.547Z,4.43
2022-09-10T20:43:51.081Z,4.03
2022-09-10T20:46:23.614Z,4.70
2022-09-10T20:48:54.359Z,4.37
2022-09-10T20:51:21.428Z,4.90
2022-09-10T20:53:48.670Z,5.23
2022-09-10T20:56:17.815Z,6.53
2022-09-10T20:58:45.284Z,12.17
2022-09-10T21:01:13.991Z,6.57
2022-09-10T21:03:41.371Z,5.97
2022-09-10T21:06:09.320Z,13.60
2022-09-10T21:08:36.571Z,7.80
2022-09-10T21:11:07.607Z,7.00
2022-09-10T21:13:35.785Z,6.53
2022-09-10T21:16:10.504Z,6.67
2022-09-10T21:18:37.482Z,6.40
2022-09-10T21:21:13.410Z,5.73
2022-09-10T21:23:44.097Z,6.47
2022-09-10T21:26:11.611Z,6.27
2022-09-10T21:28:38.921Z,6.70
2022-09-10T21:31:06.434Z,6.30
2022-09-10T21:33:33.557Z,7.97
2022-09-10T21:36:01.228Z,7.47
2022-09-10T21:38:28.945Z,7.43
2022-09-10T21:40:56.761Z,8.07
2022-09-10T21:43:24.051Z,8.87
2022-09-10T21:45:51.513Z,7.63
2022-09-10T21:48:18.689Z,8.77
2022-09-10T21:50:46.029Z,9.73
2022-09-10T21:53:15.057Z,9.37
2022-09-10T21:55:42.870Z,9.73
2022-09-10T21:58:10.245Z,8.87
2022-09-10T22:00:37.568Z,10.20
2022-09-10T22:03:04.631Z,9.70
2022-09-10T22:05:31.731Z,8.47
2022-09-10T22:07:58.711Z,8.50
2022-09-10T22:10:25.875Z,7.87
2022-09-10T22:12:53.345Z,8.30
2022-09-10T22:15:20.554Z,7.83
2022-09-10T22:17:47.823Z,8.03
2022-09-10T22:20:14.979Z,9.77
2022-09-10T22:22:43.587Z,7.30
2022-09-10T22:25:10.850Z,7.47
2022-09-10T22:27:39.451Z,6.53
2022-09-10T22:30:08.279Z,7.70
2022-09-10T22:32:35.237Z,6.73
2022-09-10T22:35:02.234Z,6.73
2022-09-10T22:37:29.144Z,7.37
2022-09-10T22:39:56.058Z,7.23
2022-09-10T22:42:22.956Z,6.50
2022-09-10T22:44:49.890Z,7.03
2022-09-10T22:47:17.909Z,6.80
2022-09-10T22:49:46.790Z,6.97
2022-09-10T22:52:13.666Z,7.07
2022-09-10T22:54:40.570Z,6.67
2022-09-10T22:57:07.852Z,6.57
2022-09-10T22:59:36.839Z,5.83
2022-09-10T23:02:04.084Z,5.80
2022-09-10T23:04:31.505Z,5.90
2022-09-10T23:06:58.791Z,5.93
2022-09-10T23:09:25.751Z,6.33
2022-09-10T23:11:53.766Z,5.63
2022-09-10T23:14:21.379Z,6.50
2022-09-10T23:16:51.246Z,6.97
2022-09-10T23:19:20.362Z,7.13
2022-09-10T23:21:49.640Z,7.03
2022-09-10T23:24:19.756Z,7.10
2022-09-10T23:26:46.800Z,6.10
2022-09-10T23:29:16.296Z,5.87
2022-09-10T23:31:44.420Z,5.00
2022-09-10T23:34:12.706Z,5.33
2022-09-10T23:36:41.443Z,6.00
2022-09-10T23:39:12.633Z,5.13
2022-09-10T23:41:40.425Z,5.70
2022-09-10T23:44:07.426Z,5.00
2022-09-10T23:46:34.669Z,4.90
2022-09-10T23:49:01.850Z,5.00
2022-09-10T23:51:29.006Z,5.23
2022-09-10T23:53:58.749Z,5.47
2022-09-10T23:56:28.291Z,5.20
2022-09-10T23:58:58.749Z,5.67
